sensor_id;sensor_type;location;lat;lon;timestamp;pressure;altitude;pressure_sealevel;temperature;humidity
77867;BME280;67271;59.120;37.970;2023-05-18T00:03:31;100403.81;;;14.46;60.46
77867;BME280;67271;59.120;37.970;2023-05-18T00:05:58;100402.78;;;14.41;60.97
77867;BME280;67271;59.120;37.970;2023-05-18T00:08:29;100396.72;;;14.39;60.92
77867;BME280;67271;59.120;37.970;2023-05-18T00:10:56;100401.09;;;14.40;60.94
77867;BME280;67271;59.120;37.970;2023-05-18T00:13:22;100398.78;;;14.37;60.90
77867;BME280;67271;59.120;37.970;2023-05-18T00:15:48;100400.91;;;14.34;60.91
77867;BME280;67271;59.120;37.970;2023-05-18T00:18:14;100407.16;;;14.28;60.98
77867;BME280;67271;59.120;37.970;2023-05-18T00:20:40;100402.81;;;14.27;61.42
77867;BME280;67271;59.120;37.970;2023-05-18T00:23:06;100402.59;;;14.22;61.57
77867;BME280;67271;59.120;37.970;2023-05-18T00:25:35;100402.19;;;14.19;61.45
77867;BME280;67271;59.120;37.970;2023-05-18T00:28:01;100404.72;;;14.14;61.89
77867;BME280;67271;59.120;37.970;2023-05-18T00:30:26;100401.59;;;14.10;61.52
77867;BME280;67271;59.120;37.970;2023-05-18T00:32:55;100402.25;;;14.06;61.99
77867;BME280;67271;59.120;37.970;2023-05-18T00:35:21;100402.88;;;14.01;61.67
77867;BME280;67271;59.120;37.970;2023-05-18T00:37:47;100409.56;;;13.99;62.29
77867;BME280;67271;59.120;37.970;2023-05-18T00:40:13;100405.41;;;13.96;62.40
77867;BME280;67271;59.120;37.970;2023-05-18T00:42:41;100406.84;;;13.92;62.11
77867;BME280;67271;59.120;37.970;2023-05-18T00:45:08;100405.19;;;13.91;62.46
77867;BME280;67271;59.120;37.970;2023-05-18T00:47:34;100403.72;;;13.88;62.85
77867;BME280;67271;59.120;37.970;2023-05-18T00:50:00;100403.72;;;13.88;62.77
77867;BME280;67271;59.120;37.970;2023-05-18T00:52:26;100400.81;;;13.90;62.60
77867;BME280;67271;59.120;37.970;2023-05-18T00:54:52;100397.00;;;13.91;62.93
77867;BME280;67271;59.120;37.970;2023-05-18T00:57:19;100413.13;;;13.92;63.05
77867;BME280;67271;59.120;37.970;2023-05-18T00:59:45;100409.38;;;13.93;63.08
77867;BME280;67271;59.120;37.970;2023-05-18T01:02:12;100407.28;;;13.89;63.02
77867;BME280;67271;59.120;37.970;2023-05-18T01:04:40;100404.56;;;13.89;63.30
77867;BME280;67271;59.120;37.970;2023-05-18T01:07:07;100399.13;;;13.89;63.58
77867;BME280;67271;59.120;37.970;2023-05-18T01:09:34;100410.84;;;13.89;63.30
77867;BME280;67271;59.120;37.970;2023-05-18T01:13:00;100404.97;;;13.92;63.44
77867;BME280;67271;59.120;37.970;2023-05-18T01:15:28;100397.66;;;13.93;63.54
77867;BME280;67271;59.120;37.970;2023-05-18T01:18:10;100402.69;;;13.96;63.49
77867;BME280;67271;59.120;37.970;2023-05-18T01:20:58;100398.47;;;14.00;63.65
77867;BME280;67271;59.120;37.970;2023-05-18T01:26:34;100398.69;;;14.05;63.73
77867;BME280;67271;59.120;37.970;2023-05-18T01:29:05;100393.84;;;14.07;63.52
77867;BME280;67271;59.120;37.970;2023-05-18T01:31:34;100403.47;;;14.10;63.41
77867;BME280;67271;59.120;37.970;2023-05-18T01:34:01;100391.09;;;14.14;63.71
77867;BME280;67271;59.120;37.970;2023-05-18T01:36:27;100392.56;;;14.16;63.47
77867;BME280;67271;59.120;37.970;2023-05-18T01:38:54;100393.81;;;14.20;63.18
77867;BME280;67271;59.120;37.970;2023-05-18T01:41:25;100388.78;;;14.24;63.25
77867;BME280;67271;59.120;37.970;2023-05-18T01:43:59;100396.06;;;14.30;62.97
77867;BME280;67271;59.120;37.970;2023-05-18T01:46:33;100393.56;;;14.35;63.15
77867;BME280;67271;59.120;37.970;2023-05-18T01:49:06;100392.50;;;14.36;62.79
77867;BME280;67271;59.120;37.970;2023-05-18T01:51:36;100387.28;;;14.41;63.01
77867;BME280;67271;59.120;37.970;2023-05-18T01:54:06;100392.06;;;14.46;62.87
77867;BME280;67271;59.120;37.970;2023-05-18T01:56:37;100402.09;;;14.52;62.57
77867;BME280;67271;59.120;37.970;2023-05-18T01:59:05;100389.75;;;14.56;62.46
77867;BME280;67271;59.120;37.970;2023-05-18T02:01:31;100389.91;;;14.61;62.48
77867;BME280;67271;59.120;37.970;2023-05-18T02:03:57;100395.31;;;14.67;62.46
77867;BME280;67271;59.120;37.970;2023-05-18T02:06:23;100399.09;;;14.73;62.18
77867;BME280;67271;59.120;37.970;2023-05-18T02:08:50;100393.81;;;14.78;61.96
77867;BME280;67271;59.120;37.970;2023-05-18T02:11:17;100394.81;;;14.84;62.10
77867;BME280;67271;59.120;37.970;2023-05-18T02:13:42;100395.81;;;14.89;61.74
77867;BME280;67271;59.120;37.970;2023-05-18T02:16:08;100398.97;;;14.93;62.01
77867;BME280;67271;59.120;37.970;2023-05-18T02:18:36;100398.72;;;15.01;61.65
77867;BME280;67271;59.120;37.970;2023-05-18T02:21:03;100395.09;;;15.07;61.40
77867;BME280;67271;59.120;37.970;2023-05-18T02:23:30;100398.41;;;15.16;61.28
77867;BME280;67271;59.120;37.970;2023-05-18T02:25:56;100397.09;;;15.25;61.24
77867;BME280;67271;59.120;37.970;2023-05-18T02:28:23;100396.56;;;15.34;60.95
77867;BME280;67271;59.120;37.970;2023-05-18T02:30:49;100395.47;;;15.42;60.82
77867;BME280;67271;59.120;37.970;2023-05-18T02:33:15;100397.06;;;15.49;60.94
77867;BME280;67271;59.120;37.970;2023-05-18T02:35:42;100401.25;;;15.59;60.46
77867;BME280;67271;59.120;37.970;2023-05-18T02:38:08;100393.03;;;15.83;60.28
77867;BME280;67271;59.120;37.970;2023-05-18T02:40:33;100385.50;;;17.30;56.77
77867;BME280;67271;59.120;37.970;2023-05-18T02:43:00;100377.75;;;19.12;52.52
77867;BME280;67271;59.120;37.970;2023-05-18T02:45:26;100378.66;;;20.34;50.05
77867;BME280;67271;59.120;37.970;2023-05-18T02:47:53;100379.53;;;21.10;48.55
77867;BME280;67271;59.120;37.970;2023-05-18T02:50:19;100378.41;;;21.65;47.85
77867;BME280;67271;59.120;37.970;2023-05-18T02:52:46;100375.09;;;22.05;46.85
77867;BME280;67271;59.120;37.970;2023-05-18T02:55:14;100372.88;;;22.54;46.01
77867;BME280;67271;59.120;37.970;2023-05-18T02:58:02;100377.75;;;22.99;45.69
77867;BME280;67271;59.120;37.970;2023-05-18T03:00:47;100376.13;;;23.29;44.62
77867;BME280;67271;59.120;37.970;2023-05-18T03:03:13;100385.84;;;23.57;44.23
77867;BME280;67271;59.120;37.970;2023-05-18T03:05:41;100389.16;;;23.59;43.88
77867;BME280;67271;59.120;37.970;2023-05-18T03:08:09;100385.28;;;23.90;43.59
77867;BME280;67271;59.120;37.970;2023-05-18T03:10:36;100384.03;;;24.47;42.67
77867;BME280;67271;59.120;37.970;2023-05-18T03:13:03;100387.81;;;25.20;41.54
77867;BME280;67271;59.120;37.970;2023-05-18T03:15:29;100395.06;;;25.55;40.86
77867;BME280;67271;59.120;37.970;2023-05-18T03:17:56;100389.53;;;26.13;39.82
77867;BME280;67271;59.120;37.970;2023-05-18T03:20:25;100386.19;;;26.16;40.34
77867;BME280;67271;59.120;37.970;2023-05-18T03:22:52;100394.06;;;25.75;40.77
77867;BME280;67271;59.120;37.970;2023-05-18T03:25:18;100391.16;;;25.61;40.59
77867;BME280;67271;59.120;37.970;2023-05-18T03:27:44;100390.13;;;25.47;40.53
77867;BME280;67271;59.120;37.970;2023-05-18T03:30:11;100386.66;;;25.99;39.45
77867;BME280;67271;59.120;37.970;2023-05-18T03:32:37;100389.94;;;26.30;38.80
77867;BME280;67271;59.120;37.970;2023-05-18T03:35:04;100386.84;;;26.55;38.50
77867;BME280;67271;59.120;37.970;2023-05-18T03:37:31;100390.78;;;26.97;37.89
77867;BME280;67271;59.120;37.970;2023-05-18T03:40:10;100386.94;;;26.93;37.56
77867;BME280;67271;59.120;37.970;2023-05-18T03:42:37;100402.81;;;27.11;37.32
77867;BME280;67271;59.120;37.970;2023-05-18T03:45:04;100390.03;;;27.66;36.43
77867;BME280;67271;59.120;37.970;2023-05-18T03:47:32;100394.53;;;27.62;36.90
77867;BME280;67271;59.120;37.970;2023-05-18T03:49:58;100396.66;;;27.84;36.23
77867;BME280;67271;59.120;37.970;2023-05-18T03:52:25;100396.28;;;28.04;35.71
77867;BME280;67271;59.120;37.970;2023-05-18T03:54:51;100400.22;;;28.03;35.66
77867;BME280;67271;59.120;37.970;2023-05-18T03:57:17;100398.34;;;28.12;35.57
77867;BME280;67271;59.120;37.970;2023-05-18T03:59:44;100400.69;;;28.38;35.13
77867;BME280;67271;59.120;37.970;2023-05-18T04:02:11;100405.13;;;28.53;34.97
77867;BME280;67271;59.120;37.970;2023-05-18T04:04:38;100414.53;;;28.57;34.61
77867;BME280;67271;59.120;37.970;2023-05-18T04:07:11;100405.72;;;27.90;35.37
77867;BME280;67271;59.120;37.970;2023-05-18T04:09:38;100407.03;;;27.79;35.46
77867;BME280;67271;59.120;37.970;2023-05-18T04:12:04;100409.94;;;28.20;34.96
77867;BME280;67271;59.120;37.970;2023-05-18T04:14:30;100405.84;;;28.31;34.72
77867;BME280;67271;59.120;37.970;2023-05-18T04:17:00;100412.34;;;28.67;34.14
77867;BME280;67271;59.120;37.970;2023-05-18T04:19:35;100411.94;;;28.60;34.13
77867;BME280;67271;59.120;37.970;2023-05-18T04:22:01;100410.78;;;28.75;33.89
77867;BME280;67271;59.120;37.970;2023-05-18T04:24:31;100409.06;;;29.29;33.08
77867;BME280;67271;59.120;37.970;2023-05-18T04:27:01;100415.91;;;29.22;33.33
77867;BME280;67271;59.120;37.970;2023-05-18T04:29:28;100412.03;;;29.32;33.15
77867;BME280;67271;59.120;37.970;2023-05-18T04:31:54;100418.75;;;29.31;33.22
77867;BME280;67271;59.120;37.970;2023-05-18T04:34:33;100418.53;;;29.63;32.96
77867;BME280;67271;59.120;37.970;2023-05-18T04:37:03;100418.06;;;30.06;32.41
77867;BME280;67271;59.120;37.970;2023-05-18T04:39:32;100417.13;;;30.19;32.40
77867;BME280;67271;59.120;37.970;2023-05-18T04:42:00;100412.19;;;30.16;31.94
77867;BME280;67271;59.120;37.970;2023-05-18T04:44:28;100414.22;;;29.80;32.34
77867;BME280;67271;59.120;37.970;2023-05-18T04:46:57;100417.50;;;29.95;32.24
77867;BME280;67271;59.120;37.970;2023-05-18T04:49:24;100410.00;;;30.84;31.16
77867;BME280;67271;59.120;37.970;2023-05-18T04:51:52;100405.31;;;31.10;30.82
77867;BME280;67271;59.120;37.970;2023-05-18T04:54:22;100406.97;;;31.20;30.57
77867;BME280;67271;59.120;37.970;2023-05-18T04:56:49;100407.94;;;31.58;30.25
77867;BME280;67271;59.120;37.970;2023-05-18T04:59:16;100405.16;;;31.67;29.59
77867;BME280;67271;59.120;37.970;2023-05-18T05:01:42;100400.88;;;31.18;30.08
77867;BME280;67271;59.120;37.970;2023-05-18T05:04:10;100405.81;;;31.46;29.99
77867;BME280;67271;59.120;37.970;2023-05-18T05:06:35;100398.91;;;31.52;29.85
77867;BME280;67271;59.120;37.970;2023-05-18T05:09:02;100399.88;;;31.82;29.29
77867;BME280;67271;59.120;37.970;2023-05-18T05:11:28;100402.06;;;31.68;29.56
77867;BME280;67271;59.120;37.970;2023-05-18T05:13:54;100397.59;;;31.41;29.78
77867;BME280;67271;59.120;37.970;2023-05-18T05:16:20;100394.06;;;30.93;29.86
77867;BME280;67271;59.120;37.970;2023-05-18T05:18:45;100397.75;;;31.28;29.82
77867;BME280;67271;59.120;37.970;2023-05-18T05:21:11;100399.75;;;31.70;29.28
77867;BME280;67271;59.120;37.970;2023-05-18T05:23:38;100393.31;;;31.78;29.04
77867;BME280;67271;59.120;37.970;2023-05-18T05:26:04;100388.34;;;31.58;29.12
77867;BME280;67271;59.120;37.970;2023-05-18T05:28:30;100386.41;;;31.15;29.64
77867;BME280;67271;59.120;37.970;2023-05-18T05:30:56;100386.91;;;30.52;30.58
77867;BME280;67271;59.120;37.970;2023-05-18T05:33:22;100384.31;;;30.25;31.08
77867;BME280;67271;59.120;37.970;2023-05-18T05:35:48;100389.63;;;30.04;31.13
77867;BME280;67271;59.120;37.970;2023-05-18T05:38:14;100393.25;;;30.05;31.02
77867;BME280;67271;59.120;37.970;2023-05-18T05:40:41;100391.50;;;30.17;30.55
77867;BME280;67271;59.120;37.970;2023-05-18T05:43:07;100389.56;;;30.26;30.95
77867;BME280;67271;59.120;37.970;2023-05-18T05:45:34;100385.34;;;30.37;30.63
77867;BME280;67271;59.120;37.970;2023-05-18T05:48:03;100384.69;;;30.40;30.75
77867;BME280;67271;59.120;37.970;2023-05-18T05:50:31;100385.81;;;30.31;31.00
77867;BME280;67271;59.120;37.970;2023-05-18T05:52:59;100397.38;;;30.07;31.05
77867;BME280;67271;59.120;37.970;2023-05-18T05:55:28;100394.09;;;29.60;31.61
77867;BME280;67271;59.120;37.970;2023-05-18T05:57:54;100399.09;;;29.94;31.40
77867;BME280;67271;59.120;37.970;2023-05-18T06:00:21;100385.88;;;30.09;31.33
77867;BME280;67271;59.120;37.970;2023-05-18T06:02:58;100397.63;;;30.28;30.64
77867;BME280;67271;59.120;37.970;2023-05-18T06:05:36;100392.09;;;30.45;30.87
77867;BME280;67271;59.120;37.970;2023-05-18T06:08:05;100386.09;;;30.52;30.73
77867;BME280;67271;59.120;37.970;2023-05-18T06:10:31;100390.06;;;30.68;30.32
77867;BME280;67271;59.120;37.970;2023-05-18T06:12:57;100400.75;;;30.26;30.81
77867;BME280;67271;59.120;37.970;2023-05-18T06:15:30;100396.22;;;29.86;31.57
77867;BME280;67271;59.120;37.970;2023-05-18T06:17:56;100391.38;;;29.69;31.54
77867;BME280;67271;59.120;37.970;2023-05-18T06:20:22;100394.56;;;29.40;32.14
77867;BME280;67271;59.120;37.970;2023-05-18T06:22:49;100394.47;;;29.68;31.77
77867;BME280;67271;59.120;37.970;2023-05-18T06:25:33;100390.78;;;29.58;31.68
77867;BME280;67271;59.120;37.970;2023-05-18T06:28:22;100394.41;;;29.23;32.55
77867;BME280;67271;59.120;37.970;2023-05-18T06:30:57;100400.16;;;29.40;32.16
77867;BME280;67271;59.120;37.970;2023-05-18T06:33:35;100399.91;;;29.73;32.42
77867;BME280;67271;59.120;37.970;2023-05-18T06:36:01;100400.03;;;29.45;32.30
77867;BME280;67271;59.120;37.970;2023-05-18T06:38:27;100390.38;;;29.29;32.38
77867;BME280;67271;59.120;37.970;2023-05-18T06:40:53;100388.44;;;29.16;32.21
77867;BME280;67271;59.120;37.970;2023-05-18T06:43:19;100393.13;;;29.07;32.70
77867;BME280;67271;59.120;37.970;2023-05-18T06:45:56;100393.84;;;28.99;32.57
77867;BME280;67271;59.120;37.970;2023-05-18T06:48:30;100386.09;;;29.09;32.80
77867;BME280;67271;59.120;37.970;2023-05-18T06:50:56;100395.56;;;29.22;32.75
77867;BME280;67271;59.120;37.970;2023-05-18T06:53:22;100396.47;;;29.31;32.43
77867;BME280;67271;59.120;37.970;2023-05-18T06:55:48;100396.69;;;28.85;32.64
77867;BME280;67271;59.120;37.970;2023-05-18T06:58:13;100390.97;;;28.90;32.69
77867;BME280;67271;59.120;37.970;2023-05-18T07:00:39;100396.53;;;29.04;32.40
77867;BME280;67271;59.120;37.970;2023-05-18T07:03:07;100390.03;;;28.95;32.89
77867;BME280;67271;59.120;37.970;2023-05-18T07:05:33;100392.84;;;28.67;33.15
77867;BME280;67271;59.120;37.970;2023-05-18T07:07:58;100390.47;;;28.88;33.30
77867;BME280;67271;59.120;37.970;2023-05-18T07:10:24;100384.81;;;29.74;32.03
77867;BME280;67271;59.120;37.970;2023-05-18T07:12:50;100381.78;;;29.61;32.15
77867;BME280;67271;59.120;37.970;2023-05-18T07:15:16;100391.19;;;28.94;32.73
77867;BME280;67271;59.120;37.970;2023-05-18T07:17:44;100384.22;;;27.95;33.63
77867;BME280;67271;59.120;37.970;2023-05-18T07:20:10;100385.97;;;27.03;34.67
77867;BME280;67271;59.120;37.970;2023-05-18T07:22:36;100387.41;;;27.00;34.68
77867;BME280;67271;59.120;37.970;2023-05-18T07:25:02;100381.41;;;27.12;34.51
77867;BME280;67271;59.120;37.970;2023-05-18T07:27:28;100378.22;;;27.37;34.78
77867;BME280;67271;59.120;37.970;2023-05-18T07:29:54;100378.22;;;27.56;34.58
77867;BME280;67271;59.120;37.970;2023-05-18T07:32:20;100371.59;;;27.52;34.51
77867;BME280;67271;59.120;37.970;2023-05-18T07:34:46;100366.66;;;27.49;34.56
77867;BME280;67271;59.120;37.970;2023-05-18T07:37:13;100378.69;;;27.77;34.04
77867;BME280;67271;59.120;37.970;2023-05-18T07:39:38;100375.28;;;27.66;34.51
77867;BME280;67271;59.120;37.970;2023-05-18T07:42:05;100380.16;;;27.74;34.28
77867;BME280;67271;59.120;37.970;2023-05-18T07:44:31;100374.53;;;27.60;34.49
77867;BME280;67271;59.120;37.970;2023-05-18T07:46:57;100376.72;;;27.45;34.66
77867;BME280;67271;59.120;37.970;2023-05-18T07:49:23;100377.63;;;27.59;34.44
77867;BME280;67271;59.120;37.970;2023-05-18T07:51:49;100371.91;;;27.31;34.54
77867;BME280;67271;59.120;37.970;2023-05-18T07:54:15;100375.50;;;26.76;35.19
77867;BME280;67271;59.120;37.970;2023-05-18T07:56:41;100371.25;;;26.12;35.55
77867;BME280;67271;59.120;37.970;2023-05-18T07:59:09;100360.19;;;26.36;35.48
77867;BME280;67271;59.120;37.970;2023-05-18T08:01:35;100356.78;;;26.63;34.97
77867;BME280;67271;59.120;37.970;2023-05-18T08:04:03;100358.47;;;26.16;35.81
77867;BME280;67271;59.120;37.970;2023-05-18T08:06:29;100361.50;;;25.91;36.20
77867;BME280;67271;59.120;37.970;2023-05-18T08:08:56;100372.63;;;25.52;36.62
77867;BME280;67271;59.120;37.970;2023-05-18T08:11:22;100373.84;;;25.40;36.69
77867;BME280;67271;59.120;37.970;2023-05-18T08:13:48;100371.91;;;25.36;37.04
77867;BME280;67271;59.120;37.970;2023-05-18T08:16:14;100364.09;;;25.43;37.07
77867;BME280;67271;59.120;37.970;2023-05-18T08:18:40;100365.84;;;25.34;37.00
77867;BME280;67271;59.120;37.970;2023-05-18T08:21:06;100372.00;;;25.26;37.11
77867;BME280;67271;59.120;37.970;2023-05-18T08:23:35;100382.38;;;25.10;37.37
77867;BME280;67271;59.120;37.970;2023-05-18T08:26:01;100366.69;;;24.85;37.72
77867;BME280;67271;59.120;37.970;2023-05-18T08:28:30;100370.84;;;24.83;37.66
77867;BME280;67271;59.120;37.970;2023-05-18T08:30:56;100380.53;;;24.95;37.45
77867;BME280;67271;59.120;37.970;2023-05-18T08:33:22;100369.88;;;25.13;37.36
77867;BME280;67271;59.120;37.970;2023-05-18T08:35:49;100369.66;;;25.77;36.55
77867;BME280;67271;59.120;37.970;2023-05-18T08:38:14;100360.31;;;25.97;36.13
77867;BME280;67271;59.120;37.970;2023-05-18T08:40:47;100367.94;;;26.10;35.90
77867;BME280;67271;59.120;37.970;2023-05-18T08:43:20;100358.25;;;26.07;36.16
77867;BME280;67271;59.120;37.970;2023-05-18T08:46:00;100354.19;;;26.00;36.13
77867;BME280;67271;59.120;37.970;2023-05-18T08:48:27;100364.53;;;25.89;36.21
77867;BME280;67271;59.120;37.970;2023-05-18T08:50:57;100357.00;;;25.95;36.24
77867;BME280;67271;59.120;37.970;2023-05-18T08:53:24;100365.75;;;26.07;36.02
77867;BME280;67271;59.120;37.970;2023-05-18T08:55:53;100356.34;;;26.32;35.86
77867;BME280;67271;59.120;37.970;2023-05-18T08:58:21;100353.91;;;26.49;35.55
77867;BME280;67271;59.120;37.970;2023-05-18T09:00:52;100356.50;;;26.40;35.54
77867;BME280;67271;59.120;37.970;2023-05-18T09:03:19;100354.53;;;26.46;35.89
77867;BME280;67271;59.120;37.970;2023-05-18T09:05:47;100355.00;;;26.29;35.92
77867;BME280;67271;59.120;37.970;2023-05-18T09:08:14;100359.59;;;26.10;36.07
77867;BME280;67271;59.120;37.970;2023-05-18T09:10:40;100363.16;;;25.92;36.44
77867;BME280;67271;59.120;37.970;2023-05-18T09:13:06;100360.41;;;25.87;36.40
77867;BME280;67271;59.120;37.970;2023-05-18T09:15:34;100367.75;;;25.72;36.48
77867;BME280;67271;59.120;37.970;2023-05-18T09:18:00;100368.44;;;25.59;36.65
77867;BME280;67271;59.120;37.970;2023-05-18T09:20:28;100365.59;;;25.64;36.44
77867;BME280;67271;59.120;37.970;2023-05-18T09:22:55;100363.81;;;25.44;36.72
77867;BME280;67271;59.120;37.970;2023-05-18T09:25:22;100361.63;;;25.41;36.75
77867;BME280;67271;59.120;37.970;2023-05-18T09:27:49;100354.94;;;25.48;36.51
77867;BME280;67271;59.120;37.970;2023-05-18T09:30:17;100361.78;;;25.60;36.37
77867;BME280;67271;59.120;37.970;2023-05-18T09:32:46;100355.25;;;25.75;36.41
77867;BME280;67271;59.120;37.970;2023-05-18T09:35:12;100354.53;;;25.64;36.46
77867;BME280;67271;59.120;37.970;2023-05-18T09:37:41;100350.44;;;25.52;36.65
77867;BME280;67271;59.120;37.970;2023-05-18T09:40:08;100335.72;;;25.56;36.58
77867;BME280;67271;59.120;37.970;2023-05-18T09:42:41;100345.06;;;25.70;36.44
77867;BME280;67271;59.120;37.970;2023-05-18T09:45:21;100337.97;;;26.12;35.76
77867;BME280;67271;59.120;37.970;2023-05-18T09:47:51;100338.34;;;26.29;35.64
77867;BME280;67271;59.120;37.970;2023-05-18T09:50:21;100344.47;;;26.26;35.99
77867;BME280;67271;59.120;37.970;2023-05-18T09:52:48;100337.22;;;26.30;36.04
77867;BME280;67271;59.120;37.970;2023-05-18T09:55:15;100332.00;;;26.47;35.61
77867;BME280;67271;59.120;37.970;2023-05-18T09:57:43;100328.66;;;26.69;35.50
77867;BME280;67271;59.120;37.970;2023-05-18T10:00:11;100333.41;;;26.69;35.50
77867;BME280;67271;59.120;37.970;2023-05-18T10:02:39;100320.78;;;26.76;35.47
77867;BME280;67271;59.120;37.970;2023-05-18T10:05:17;100333.88;;;26.94;35.20
77867;BME280;67271;59.120;37.970;2023-05-18T10:07:44;100326.97;;;26.92;35.06
77867;BME280;67271;59.120;37.970;2023-05-18T10:10:10;100327.50;;;26.94;35.13
77867;BME280;67271;59.120;37.970;2023-05-18T10:12:38;100320.72;;;27.19;35.28
77867;BME280;67271;59.120;37.970;2023-05-18T10:15:08;100324.56;;;27.36;34.88
77867;BME280;67271;59.120;37.970;2023-05-18T10:17:38;100320.09;;;27.41;35.30
77867;BME280;67271;59.120;37.970;2023-05-18T10:20:07;100322.53;;;27.28;35.34
77867;BME280;67271;59.120;37.970;2023-05-18T10:22:35;100318.16;;;27.22;35.48
77867;BME280;67271;59.120;37.970;2023-05-18T10:25:05;100322.75;;;27.13;35.53
77867;BME280;67271;59.120;37.970;2023-05-18T10:27:34;100324.47;;;27.09;35.93
77867;BME280;67271;59.120;37.970;2023-05-18T10:30:01;100323.13;;;27.25;35.81
77867;BME280;67271;59.120;37.970;2023-05-18T10:32:28;100329.69;;;27.29;35.75
77867;BME280;67271;59.120;37.970;2023-05-18T10:34:57;100326.41;;;27.27;35.74
77867;BME280;67271;59.120;37.970;2023-05-18T10:37:24;100331.78;;;27.05;35.86
77867;BME280;67271;59.120;37.970;2023-05-18T10:39:57;100321.75;;;26.85;36.21
77867;BME280;67271;59.120;37.970;2023-05-18T10:42:25;100331.66;;;26.73;36.56
77867;BME280;67271;59.120;37.970;2023-05-18T10:44:56;100330.91;;;26.86;36.22
77867;BME280;67271;59.120;37.970;2023-05-18T10:47:26;100328.13;;;26.86;36.27
77867;BME280;67271;59.120;37.970;2023-05-18T10:49:52;100332.84;;;26.90;36.32
77867;BME280;67271;59.120;37.970;2023-05-18T10:52:19;100324.13;;;26.97;36.26
77867;BME280;67271;59.120;37.970;2023-05-18T10:54:49;100329.00;;;27.05;36.34
77867;BME280;67271;59.120;37.970;2023-05-18T10:57:17;100324.78;;;27.26;36.35
77867;BME280;67271;59.120;37.970;2023-05-18T10:59:45;100332.56;;;27.24;36.57
77867;BME280;67271;59.120;37.970;2023-05-18T11:02:16;100332.47;;;26.97;37.15
77867;BME280;67271;59.120;37.970;2023-05-18T11:04:45;100330.63;;;26.69;37.78
77867;BME280;67271;59.120;37.970;2023-05-18T11:07:12;100326.97;;;26.49;38.03
77867;BME280;67271;59.120;37.970;2023-05-18T11:09:43;100327.69;;;26.60;38.03
77867;BME280;67271;59.120;37.970;2023-05-18T11:12:12;100336.47;;;26.67;38.06
77867;BME280;67271;59.120;37.970;2023-05-18T11:14:50;100334.09;;;26.55;38.25
77867;BME280;67271;59.120;37.970;2023-05-18T11:17:18;100330.75;;;26.58;38.37
77867;BME280;67271;59.120;37.970;2023-05-18T11:28:03;100338.72;;;25.94;40.19
77867;BME280;67271;59.120;37.970;2023-05-18T11:35:33;100346.69;;;24.98;41.42
77867;BME280;67271;59.120;37.970;2023-05-18T11:38:06;100349.63;;;24.68;42.25
77867;BME280;67271;59.120;37.970;2023-05-18T11:40:50;100354.25;;;24.23;42.85
77867;BME280;67271;59.120;37.970;2023-05-18T11:43:24;100360.41;;;23.80;43.63
77867;BME280;67271;59.120;37.970;2023-05-18T11:45:55;100372.56;;;23.48;43.81
77867;BME280;67271;59.120;37.970;2023-05-18T11:48:23;100366.47;;;23.41;44.09
77867;BME280;67271;59.120;37.970;2023-05-18T11:50:52;100373.38;;;23.34;44.08
77867;BME280;67271;59.120;37.970;2023-05-18T11:53:19;100370.84;;;23.17;43.94
77867;BME280;67271;59.120;37.970;2023-05-18T11:55:51;100372.53;;;23.18;44.29
77867;BME280;67271;59.120;37.970;2023-05-18T11:58:19;100380.00;;;23.23;43.90
77867;BME280;67271;59.120;37.970;2023-05-18T12:00:47;100380.53;;;23.40;43.89
77867;BME280;67271;59.120;37.970;2023-05-18T12:03:14;100365.38;;;23.37;44.21
77867;BME280;67271;59.120;37.970;2023-05-18T12:05:42;100376.44;;;23.58;43.68
77867;BME280;67271;59.120;37.970;2023-05-18T12:08:19;100373.94;;;23.76;43.81
77867;BME280;67271;59.120;37.970;2023-05-18T12:10:47;100385.22;;;24.10;43.13
77867;BME280;67271;59.120;37.970;2023-05-18T12:13:15;100379.41;;;24.27;43.04
77867;BME280;67271;59.120;37.970;2023-05-18T12:15:42;100386.00;;;24.41;42.80
77867;BME280;67271;59.120;37.970;2023-05-18T12:18:09;100383.53;;;24.29;43.11
77867;BME280;67271;59.120;37.970;2023-05-18T12:20:38;100382.47;;;24.00;43.62
77867;BME280;67271;59.120;37.970;2023-05-18T12:23:04;100384.44;;;23.79;43.88
77867;BME280;67271;59.120;37.970;2023-05-18T12:25:30;100383.06;;;23.82;44.23
77867;BME280;67271;59.120;37.970;2023-05-18T12:27:56;100388.88;;;23.80;44.02
77867;BME280;67271;59.120;37.970;2023-05-18T12:30:24;100386.66;;;23.87;44.15
77867;BME280;67271;59.120;37.970;2023-05-18T12:32:59;100397.69;;;23.77;44.94
77867;BME280;67271;59.120;37.970;2023-05-18T12:35:26;100396.63;;;23.53;45.20
77867;BME280;67271;59.120;37.970;2023-05-18T12:37:53;100407.88;;;23.31;46.13
77867;BME280;67271;59.120;37.970;2023-05-18T12:40:25;100411.41;;;22.91;46.92
77867;BME280;67271;59.120;37.970;2023-05-18T12:45:25;100423.94;;;22.10;48.89
77867;BME280;67271;59.120;37.970;2023-05-18T12:47:51;100439.03;;;21.70;49.85
77867;BME280;67271;59.120;37.970;2023-05-18T12:50:22;100454.66;;;21.33;50.58
77867;BME280;67271;59.120;37.970;2023-05-18T12:52:49;100445.88;;;20.87;52.06
77867;BME280;67271;59.120;37.970;2023-05-18T12:55:20;100461.19;;;20.83;52.69
77867;BME280;67271;59.120;37.970;2023-05-18T12:58:10;100452.69;;;20.63;52.97
77867;BME280;67271;59.120;37.970;2023-05-18T13:00:45;100456.31;;;20.46;53.41
77867;BME280;67271;59.120;37.970;2023-05-18T13:03:13;100461.63;;;20.53;53.74
77867;BME280;67271;59.120;37.970;2023-05-18T13:05:40;100453.78;;;20.62;53.35
77867;BME280;67271;59.120;37.970;2023-05-18T13:08:07;100463.91;;;20.78;52.84